Time;durP1;ratioP1;P1;durP2;ratioP2;P2;SDS_P1;SDS_P2;PMS_P1;PMS_P2;Temp;Humidity;BMP_temperature;BMP_pressure;BME280_temperature;BME280_humidity;BME280_pressure;Samples;Min_cycle;Max_cycle;Signal;HPM_P1;HPM_P2
2023/12/02 00:00:51;;;;;;;27.37;13.00;;;;;-2.20;100484.00;;;;10055140;29;20227;-83
2023/12/02 00:05:52;;;;;;;23.83;11.40;;;;;-2.20;100470.00;;;;10089395;29;20227;-83
2023/12/02 00:10:54;;;;;;;27.77;11.60;;;;;-2.40;100467.00;;;;10058139;29;20311;-83
2023/12/02 00:15:55;;;;;;;25.00;11.43;;;;;-2.50;100454.00;;;;10079138;29;20231;-80
2023/12/02 00:20:56;;;;;;;22.63;11.57;;;;;-2.60;100453.00;;;;10068714;29;20252;-79
2023/12/02 00:25:58;;;;;;;27.23;13.13;;;;;-2.70;100446.00;;;;10080534;29;20230;-80
2023/12/02 00:30:59;;;;;;;26.73;12.10;;;;;-2.20;100447.00;;;;10092582;29;20231;-80
2023/12/02 00:36:01;;;;;;;29.67;11.97;;;;;-2.20;100451.00;;;;10082921;29;20266;-80
2023/12/02 00:41:03;;;;;;;30.20;13.53;;;;;-2.20;100468.00;;;;10066056;29;20890;-80
2023/12/02 00:46:04;;;;;;;23.33;12.03;;;;;-2.30;100461.00;;;;10089629;29;20352;-81
2023/12/02 00:51:06;;;;;;;24.67;12.30;;;;;-2.30;100474.00;;;;10062052;29;20264;-80
2023/12/02 00:56:08;;;;;;;27.53;12.47;;;;;-2.40;100475.00;;;;10067719;29;20232;-79
2023/12/02 01:01:09;;;;;;;25.73;12.77;;;;;-2.30;100477.00;;;;10061343;29;20311;-80
2023/12/02 01:06:10;;;;;;;27.50;12.57;;;;;-2.30;100485.00;;;;10085856;29;20230;-80
2023/12/02 01:11:11;;;;;;;34.10;14.13;;;;;-2.20;100476.00;;;;10057516;29;20323;-81
2023/12/02 01:16:13;;;;;;;28.10;12.87;;;;;-2.20;100484.00;;;;10075316;29;20334;-81
2023/12/02 01:21:14;;;;;;;30.60;13.33;;;;;-2.10;100483.00;;;;10074249;29;20311;-80
2023/12/02 01:26:15;;;;;;;28.27;13.87;;;;;-2.10;100473.00;;;;10078251;29;20724;-78
2023/12/02 01:31:16;;;;;;;33.37;14.17;;;;;-2.00;100476.00;;;;10088478;29;20262;-76
2023/12/02 01:36:17;;;;;;;33.30;15.90;;;;;-1.90;100479.00;;;;10084737;29;20951;-79
2023/12/02 01:41:19;;;;;;;29.73;15.37;;;;;-1.90;100489.00;;;;10066503;29;20247;-77
2023/12/02 01:46:20;;;;;;;32.33;14.03;;;;;-1.90;100496.00;;;;10079082;29;20303;-79
2023/12/02 01:51:21;;;;;;;35.17;14.87;;;;;-1.90;100498.00;;;;10055672;29;20279;-77
2023/12/02 01:56:22;;;;;;;33.10;15.77;;;;;-1.90;100497.00;;;;10074787;29;20245;-79
2023/12/02 02:01:24;;;;;;;29.10;14.90;;;;;-1.90;100511.00;;;;10050986;29;20246;-81
2023/12/02 02:06:25;;;;;;;29.33;13.60;;;;;-1.90;100505.00;;;;10072463;29;20231;-77
2023/12/02 02:11:26;;;;;;;32.67;14.30;;;;;-1.90;100495.00;;;;10070227;29;20231;-79
2023/12/02 02:16:28;;;;;;;26.30;13.63;;;;;-1.90;100504.00;;;;10082603;29;20818;-78
2023/12/02 02:21:29;;;;;;;26.13;13.77;;;;;-1.90;100509.00;;;;10086094;29;20343;-79
2023/12/02 02:26:30;;;;;;;33.03;14.50;;;;;-2.00;100519.00;;;;10072460;29;20247;-79
2023/12/02 02:31:31;;;;;;;34.00;14.93;;;;;-2.00;100516.00;;;;10051676;29;21130;-78
2023/12/02 02:36:32;;;;;;;29.73;14.80;;;;;-2.00;100524.00;;;;10085623;29;20263;-79
2023/12/02 02:41:34;;;;;;;32.63;13.70;;;;;-2.00;100527.00;;;;10050191;29;20231;-79
2023/12/02 02:46:35;;;;;;;28.00;14.43;;;;;-2.10;100522.00;;;;10079796;29;20698;-78
2023/12/02 02:51:36;;;;;;;29.90;14.10;;;;;-2.10;100527.00;;;;10076654;29;20268;-76
2023/12/02 02:56:37;;;;;;;30.87;15.90;;;;;-2.10;100539.00;;;;10065449;29;20232;-80
2023/12/02 03:01:42;;;;;;;32.60;13.87;;;;;-2.20;100541.00;;;;10084255;29;20255;-78
2023/12/02 03:06:43;;;;;;;30.77;14.37;;;;;-2.20;100542.00;;;;10066802;29;20318;-77
2023/12/02 03:11:45;;;;;;;27.53;14.50;;;;;-2.20;100538.00;;;;10069122;29;20566;-78
2023/12/02 03:16:46;;;;;;;31.00;15.70;;;;;-2.10;100541.00;;;;10065535;29;20239;-78
2023/12/02 03:21:48;;;;;;;29.63;13.47;;;;;-2.10;100529.00;;;;10065048;29;20741;-79
2023/12/02 03:26:49;;;;;;;28.07;13.53;;;;;-2.10;100536.00;;;;10077719;29;20238;-78
2023/12/02 03:31:50;;;;;;;31.67;14.93;;;;;-2.10;100543.00;;;;10070423;29;20235;-78
2023/12/02 03:36:51;;;;;;;31.07;15.20;;;;;-2.20;100538.00;;;;10058884;29;20270;-79
2023/12/02 03:41:52;;;;;;;29.80;14.27;;;;;-2.20;100541.00;;;;10101101;29;20250;-76
2023/12/02 03:46:53;;;;;;;33.17;14.93;;;;;-2.20;100561.00;;;;10086819;29;20325;-81
2023/12/02 03:51:55;;;;;;;29.73;13.47;;;;;-2.20;100560.00;;;;10066293;29;20835;-80
2023/12/02 03:56:56;;;;;;;28.83;14.70;;;;;-2.20;100554.00;;;;10075872;29;20686;-81
2023/12/02 04:01:58;;;;;;;30.60;13.90;;;;;-2.30;100566.00;;;;10073016;29;20242;-80
2023/12/02 04:06:59;;;;;;;39.63;15.70;;;;;-2.30;100566.00;;;;10088860;29;20263;-81
2023/12/02 04:12:01;;;;;;;29.77;13.93;;;;;-2.30;100572.00;;;;10057784;29;20306;-80
2023/12/02 04:17:02;;;;;;;31.77;14.87;;;;;-2.30;100575.00;;;;10073795;29;20286;-81
2023/12/02 04:22:04;;;;;;;34.93;14.20;;;;;-2.30;100581.00;;;;10065413;29;20251;-80
2023/12/02 04:27:07;;;;;;;32.63;14.30;;;;;-2.20;100590.00;;;;10077311;29;20335;-81
2023/12/02 04:32:08;;;;;;;27.30;13.83;;;;;-2.30;100596.00;;;;10062694;29;20232;-81
2023/12/02 04:37:10;;;;;;;30.53;14.63;;;;;-2.30;100604.00;;;;10058676;29;20242;-80
2023/12/02 04:42:11;;;;;;;27.60;14.43;;;;;-2.30;100602.00;;;;10071027;29;20310;-80
2023/12/02 04:47:12;;;;;;;29.43;14.80;;;;;-2.40;100604.00;;;;10073116;29;20647;-79
2023/12/02 04:52:13;;;;;;;32.07;14.90;;;;;-2.40;100609.00;;;;10077915;29;20254;-80
2023/12/02 04:57:15;;;;;;;32.47;14.63;;;;;-2.50;100612.00;;;;10096525;29;20239;-81
2023/12/02 05:02:18;;;;;;;30.70;13.57;;;;;-2.50;100626.00;;;;10060889;29;20231;-82
2023/12/02 05:07:20;;;;;;;29.80;13.90;;;;;-2.60;100619.00;;;;10059247;29;20279;-81
2023/12/02 05:12:21;;;;;;;28.17;15.70;;;;;-2.70;100626.00;;;;10051810;29;20226;-81
2023/12/02 05:17:22;;;;;;;34.17;14.40;;;;;-2.80;100619.00;;;;10070656;29;20235;-82
2023/12/02 05:22:24;;;;;;;30.23;14.60;;;;;-2.90;100623.00;;;;10064353;29;20220;-82
2023/12/02 05:27:25;;;;;;;26.17;13.63;;;;;-2.90;100633.00;;;;10093960;29;20702;-81
2023/12/02 05:32:27;;;;;;;28.73;13.60;;;;;-2.80;100634.00;;;;10061431;29;20226;-82
2023/12/02 05:37:28;;;;;;;32.20;13.90;;;;;-2.70;100654.00;;;;10063673;29;20321;-82
2023/12/02 05:42:29;;;;;;;26.33;13.27;;;;;-2.60;100644.00;;;;10078719;29;20239;-82
2023/12/02 05:47:30;;;;;;;34.93;14.67;;;;;-2.50;100650.00;;;;10078159;29;20279;-82
2023/12/02 05:52:31;;;;;;;31.23;15.37;;;;;-2.40;100660.00;;;;10070705;29;20265;-82
2023/12/02 05:57:33;;;;;;;27.37;14.43;;;;;-2.40;100672.00;;;;10076238;29;20584;-82
2023/12/02 06:02:34;;;;;;;33.03;15.17;;;;;-2.40;100681.00;;;;10057470;29;21005;-82
2023/12/02 06:07:35;;;;;;;30.17;14.03;;;;;-2.40;100678.00;;;;10062177;29;20238;-82
2023/12/02 06:12:37;;;;;;;31.90;15.20;;;;;-2.40;100673.00;;;;10068581;29;20709;-82
2023/12/02 06:17:39;;;;;;;31.13;14.37;;;;;-2.30;100685.00;;;;10056113;29;20228;-82
2023/12/02 06:22:40;;;;;;;33.00;14.90;;;;;-2.30;100686.00;;;;10086436;29;20231;-82
2023/12/02 06:27:41;;;;;;;34.70;16.00;;;;;-2.40;100684.00;;;;10053187;29;20275;-82
2023/12/02 06:32:43;;;;;;;33.03;15.43;;;;;-2.30;100694.00;;;;10071949;29;20586;-82
2023/12/02 06:37:44;;;;;;;34.63;15.03;;;;;-2.30;100693.00;;;;10071267;29;20232;-82
2023/12/02 06:42:45;;;;;;;29.07;15.23;;;;;-2.30;100694.00;;;;10071695;29;20239;-82
2023/12/02 06:47:46;;;;;;;33.93;16.07;;;;;-2.20;100707.00;;;;10072664;29;20267;-82
2023/12/02 06:52:47;;;;;;;35.67;17.37;;;;;-2.20;100710.00;;;;10060548;29;20271;-81
2023/12/02 06:57:49;;;;;;;30.80;14.47;;;;;-2.30;100710.00;;;;10067102;29;20698;-82
2023/12/02 07:02:50;;;;;;;38.63;15.87;;;;;-2.30;100706.00;;;;10050305;29;20243;-83
2023/12/02 07:07:52;;;;;;;31.77;15.53;;;;;-2.50;100727.00;;;;10058095;29;20932;-82
2023/12/02 07:12:53;;;;;;;29.60;14.77;;;;;-2.60;100732.00;;;;10067816;29;21218;-83
2023/12/02 07:17:54;;;;;;;31.63;15.50;;;;;-2.80;100731.00;;;;10075312;29;20235;-82
2023/12/02 07:22:55;;;;;;;30.23;14.77;;;;;-2.90;100731.00;;;;10068630;29;20318;-82
2023/12/02 07:27:56;;;;;;;35.37;16.20;;;;;-3.00;100749.00;;;;10076211;29;20644;-82
2023/12/02 07:32:58;;;;;;;31.47;14.83;;;;;-3.10;100744.00;;;;10075952;29;20228;-83
2023/12/02 07:37:59;;;;;;;30.93;15.37;;;;;-3.20;100753.00;;;;10075518;29;20598;-83
2023/12/02 07:43:04;;;;;;;31.27;15.43;;;;;-3.20;100773.00;;;;10074128;29;20223;-83
2023/12/02 07:48:05;;;;;;;34.47;15.43;;;;;-3.20;100771.00;;;;10053576;29;20785;-83
2023/12/02 07:53:07;;;;;;;34.93;15.77;;;;;-3.30;100797.00;;;;10061491;29;20753;-83
2023/12/02 07:58:08;;;;;;;35.90;16.30;;;;;-3.30;100797.00;;;;10059267;29;20314;-83
2023/12/02 08:03:09;;;;;;;30.53;15.43;;;;;-3.30;100797.00;;;;10051069;29;20228;-84
2023/12/02 08:08:11;;;;;;;36.87;17.10;;;;;-3.30;100809.00;;;;10084753;29;20666;-84
2023/12/02 08:13:12;;;;;;;31.13;14.77;;;;;-3.20;100799.00;;;;10060084;29;20227;-84
2023/12/02 08:18:15;;;;;;;33.07;15.13;;;;;-3.00;100810.00;;;;10059532;29;20792;-84
2023/12/02 08:23:16;;;;;;;33.10;14.97;;;;;-2.90;100805.00;;;;10045582;29;20223;-84
2023/12/02 08:28:18;;;;;;;41.33;18.63;;;;;-2.70;100811.00;;;;10064389;29;20231;-84
2023/12/02 08:33:19;;;;;;;35.57;16.47;;;;;-2.50;100820.00;;;;10076094;29;20254;-84
2023/12/02 08:38:20;;;;;;;40.10;18.07;;;;;-2.30;100838.00;;;;10068887;29;20246;-84
2023/12/02 08:43:21;;;;;;;34.40;16.73;;;;;-2.00;100849.00;;;;10068821;29;20314;-83
2023/12/02 08:48:22;;;;;;;39.83;18.33;;;;;-1.80;100862.00;;;;10079182;29;20367;-83
2023/12/02 08:53:24;;;;;;;39.20;18.57;;;;;-1.60;100837.00;;;;10091385;29;20220;-84
2023/12/02 08:58:25;;;;;;;41.80;18.93;;;;;-1.30;100854.00;;;;10085855;29;20275;-87
2023/12/02 09:03:27;;;;;;;35.50;15.63;;;;;-1.10;100859.00;;;;10089359;29;20227;-86
2023/12/02 09:08:28;;;;;;;39.07;19.00;;;;;-1.00;100856.00;;;;10117626;29;20219;-85
2023/12/02 09:13:32;;;;;;;38.03;18.43;;;;;-0.80;100858.00;;;;10104975;29;20235;-86
2023/12/02 09:18:35;;;;;;;38.83;18.03;;;;;-0.60;100870.00;;;;10080239;29;20227;-87
2023/12/02 09:23:37;;;;;;;38.90;19.03;;;;;-0.40;100871.00;;;;10054238;29;20264;-86
2023/12/02 09:28:44;;;;;;;36.87;18.90;;;;;-0.10;100860.00;;;;10055757;29;20444;-86
2023/12/02 09:33:54;;;;;;;39.17;19.30;;;;;0.00;100870.00;;;;10092920;29;20239;-86
2023/12/02 09:39:03;;;;;;;39.80;18.40;;;;;0.20;100868.00;;;;10082518;29;20235;-85
2023/12/02 09:44:20;;;;;;;46.13;22.97;;;;;0.40;100867.00;;;;10103250;29;20232;-85
2023/12/02 09:49:36;;;;;;;45.83;23.70;;;;;0.60;100873.00;;;;10087405;29;21730;-85
2023/12/02 09:54:53;;;;;;;53.27;24.27;;;;;0.90;100872.00;;;;10075896;29;20215;-85
2023/12/02 10:00:15;;;;;;;49.97;22.23;;;;;1.20;100867.00;;;;10084259;29;20230;-85
2023/12/02 10:05:17;;;;;;;41.77;21.33;;;;;1.30;100870.00;;;;10081361;29;20314;-84
2023/12/02 10:10:30;;;;;;;40.33;20.37;;;;;1.50;100882.00;;;;10060683;29;20234;-85
2023/12/02 10:15:33;;;;;;;39.50;20.23;;;;;1.60;100910.00;;;;10055604;29;20262;-84
2023/12/02 10:20:38;;;;;;;40.43;21.93;;;;;1.80;100898.00;;;;10071354;29;20473;-84
2023/12/02 10:26:10;;;;;;;39.37;19.93;;;;;1.90;100906.00;;;;10047435;29;20227;-84
2023/12/02 10:31:22;;;;;;;40.97;19.37;;;;;1.80;100907.00;;;;10071455;29;21003;-85
2023/12/02 10:36:27;;;;;;;33.00;18.47;;;;;1.80;100910.00;;;;10073068;29;20231;-84
2023/12/02 10:41:44;;;;;;;35.00;18.37;;;;;1.70;100916.00;;;;10057040;29;20291;-85
2023/12/02 10:46:46;;;;;;;39.00;18.00;;;;;1.90;100912.00;;;;10056001;29;20321;-83
2023/12/02 10:51:49;;;;;;;35.07;18.83;;;;;2.10;100913.00;;;;10048891;29;20315;-83
2023/12/02 10:57:12;;;;;;;34.03;19.13;;;;;2.30;100907.00;;;;10079046;29;20235;-84
2023/12/02 11:02:34;;;;;;;34.03;19.63;;;;;2.60;100900.00;;;;10078309;29;20223;-83
2023/12/02 11:07:37;;;;;;;34.47;18.50;;;;;2.70;100906.00;;;;10063962;29;20230;-83
2023/12/02 11:12:44;;;;;;;36.40;19.80;;;;;2.80;100896.00;;;;10061221;29;20236;-82
2023/12/02 11:18:05;;;;;;;33.77;19.00;;;;;2.90;100902.00;;;;10052523;29;20278;-81
2023/12/02 11:23:18;;;;;;;30.43;17.27;;;;;2.70;100905.00;;;;10057782;29;20312;-81
2023/12/02 11:28:59;;;;;;;31.37;16.67;;;;;2.60;100908.00;;;;10050178;29;20235;-81
2023/12/02 11:34:27;;;;;;;34.37;18.03;;;;;2.90;100908.00;;;;10064948;29;20230;-84
2023/12/02 11:39:45;;;;;;;36.33;18.97;;;;;3.10;100907.00;;;;10079426;29;20260;-82
2023/12/02 11:44:55;;;;;;;36.10;18.87;;;;;2.60;100911.00;;;;10065282;29;20914;-81
2023/12/02 11:50:17;;;;;;;32.97;18.27;;;;;2.50;100909.00;;;;10070425;29;20266;-82
2023/12/02 11:55:18;;;;;;;35.40;18.70;;;;;2.70;100902.00;;;;10044755;29;21782;-81
2023/12/02 12:00:37;;;;;;;34.10;17.80;;;;;2.60;100905.00;;;;10058781;29;20383;-82
2023/12/02 12:06:02;;;;;;;32.93;18.10;;;;;2.70;100903.00;;;;10056982;29;20246;-82
2023/12/02 12:11:06;;;;;;;30.73;17.40;;;;;2.60;100902.00;;;;10058383;29;20235;-82
2023/12/02 12:16:07;;;;;;;33.77;18.07;;;;;2.50;100896.00;;;;10075855;29;20244;-82
2023/12/02 12:21:09;;;;;;;33.07;19.27;;;;;2.60;100908.00;;;;10053782;29;20306;-78
2023/12/02 12:26:10;;;;;;;36.33;19.70;;;;;2.90;100915.00;;;;10063323;29;20297;-83
2023/12/02 12:31:11;;;;;;;32.73;17.83;;;;;3.00;100917.00;;;;10074724;29;20317;-78
2023/12/02 12:36:12;;;;;;;33.07;17.50;;;;;2.80;100919.00;;;;10052179;29;20236;-79
2023/12/02 12:41:15;;;;;;;34.83;18.10;;;;;2.80;100923.00;;;;10086137;29;20712;-79
2023/12/02 12:46:16;;;;;;;31.73;18.27;;;;;2.90;100921.00;;;;10056018;29;20315;-80
2023/12/02 12:51:19;;;;;;;35.03;19.43;;;;;3.50;100931.00;;;;10068749;29;21243;-78
2023/12/02 12:56:48;;;;;;;34.20;19.07;;;;;3.20;100933.00;;;;10048235;29;20907;-78
2023/12/02 13:02:01;;;;;;;34.70;18.20;;;;;3.20;100940.00;;;;10071969;29;20231;-78
2023/12/02 13:07:13;;;;;;;31.53;17.17;;;;;3.00;100945.00;;;;10068386;29;20231;-81
2023/12/02 13:12:18;;;;;;;36.63;18.90;;;;;3.40;100947.00;;;;10050426;29;20228;-80
2023/12/02 13:17:20;;;;;;;35.67;19.70;;;;;3.70;100953.00;;;;10067525;29;20246;-80
2023/12/02 13:22:25;;;;;;;35.80;19.20;;;;;3.60;100953.00;;;;10069279;29;20926;-80
2023/12/02 13:27:34;;;;;;;30.43;18.53;;;;;3.40;100953.00;;;;10050851;29;20257;-81
2023/12/02 13:32:39;;;;;;;31.60;17.10;;;;;3.00;100951.00;;;;10048274;29;20228;-80
2023/12/02 13:37:46;;;;;;;30.67;17.17;;;;;2.70;100956.00;;;;10066567;29;20231;-80
2023/12/02 13:42:49;;;;;;;34.03;18.93;;;;;2.50;100972.00;;;;10066484;29;20228;-80
2023/12/02 13:48:02;;;;;;;33.63;17.90;;;;;2.40;100969.00;;;;10084051;29;20251;-80
2023/12/02 13:53:22;;;;;;;38.53;19.70;;;;;2.30;100974.00;;;;10078175;29;20281;-80
2023/12/02 13:58:38;;;;;;;36.23;18.70;;;;;2.10;100977.00;;;;10074239;29;20907;-80
2023/12/02 14:04:11;;;;;;;35.67;18.87;;;;;1.90;100980.00;;;;10057303;29;20250;-80
2023/12/02 14:09:20;;;;;;;35.30;19.03;;;;;1.70;100979.00;;;;10031650;29;20235;-80
2023/12/02 14:14:36;;;;;;;34.10;18.03;;;;;1.60;100992.00;;;;10056584;29;20319;-80
2023/12/02 14:19:38;;;;;;;34.07;18.40;;;;;1.40;100995.00;;;;10050413;29;20226;-79
2023/12/02 14:25:11;;;;;;;36.73;18.27;;;;;1.30;100993.00;;;;10068831;29;20237;-78
2023/12/02 14:30:28;;;;;;;36.73;18.87;;;;;1.20;100999.00;;;;10089001;29;20581;-79
2023/12/02 14:35:49;;;;;;;41.47;20.00;;;;;1.10;101014.00;;;;10082413;29;20231;-79
2023/12/02 14:41:14;;;;;;;39.23;18.90;;;;;1.00;101017.00;;;;10052270;29;20215;-78
2023/12/02 14:46:22;;;;;;;39.10;19.90;;;;;0.80;101017.00;;;;10074878;29;20248;-79
2023/12/02 14:51:25;;;;;;;41.83;20.60;;;;;0.70;101034.00;;;;10069859;29;20234;-80
2023/12/02 14:56:27;;;;;;;43.07;20.73;;;;;0.60;101036.00;;;;10075313;29;20996;-80
2023/12/02 15:01:40;;;;;;;38.33;20.83;;;;;0.50;101045.00;;;;10047400;29;20243;-79
2023/12/02 15:06:41;;;;;;;41.43;18.97;;;;;0.40;101044.00;;;;10067477;29;20231;-78
2023/12/02 15:11:43;;;;;;;41.50;20.27;;;;;0.30;101048.00;;;;10046637;29;20224;-77
2023/12/02 15:16:47;;;;;;;37.03;19.97;;;;;0.20;101056.00;;;;10080968;29;20284;-76
2023/12/02 15:22:14;;;;;;;37.43;17.77;;;;;0.00;101057.00;;;;10076721;29;20279;-77
2023/12/02 15:27:22;;;;;;;35.03;17.23;;;;;-0.10;101065.00;;;;10076290;29;20218;-85
2023/12/02 15:32:25;;;;;;;33.33;17.67;;;;;-0.20;101078.00;;;;10109964;29;20831;-84
2023/12/02 15:37:41;;;;;;;35.53;17.60;;;;;-0.30;101075.00;;;;10096253;29;20238;-86
2023/12/02 15:42:45;;;;;;;38.27;17.77;;;;;-0.30;101082.00;;;;10099174;29;20299;-86
2023/12/02 15:47:48;;;;;;;34.00;17.20;;;;;-0.40;101089.00;;;;10065964;29;20234;-84
2023/12/02 15:52:52;;;;;;;39.53;18.27;;;;;-0.50;101109.00;;;;10070921;29;20235;-86
2023/12/02 15:57:54;;;;;;;37.63;17.30;;;;;-0.60;101118.00;;;;10056364;29;20227;-84
2023/12/02 16:02:56;;;;;;;41.37;18.87;;;;;-0.80;101125.00;;;;10079033;29;21334;-84
2023/12/02 16:07:57;;;;;;;39.57;17.97;;;;;-0.90;101128.00;;;;10065045;29;20738;-84
2023/12/02 16:12:58;;;;;;;35.53;17.90;;;;;-0.90;101136.00;;;;10064386;29;20339;-84
2023/12/02 16:18:00;;;;;;;40.80;19.20;;;;;-1.00;101146.00;;;;10049001;29;20255;-85
2023/12/02 16:23:02;;;;;;;42.97;19.03;;;;;-1.10;101156.00;;;;10049464;29;20231;-85
2023/12/02 16:28:04;;;;;;;38.00;18.37;;;;;-1.10;101158.00;;;;10048414;29;20877;-85
2023/12/02 16:33:06;;;;;;;38.33;18.97;;;;;-1.20;101167.00;;;;10069766;29;20307;-84
2023/12/02 16:38:08;;;;;;;39.87;18.90;;;;;-1.20;101176.00;;;;10057051;29;20242;-78
2023/12/02 16:43:09;;;;;;;38.87;19.10;;;;;-1.20;101183.00;;;;10080852;29;20239;-79
2023/12/02 16:48:13;;;;;;;40.57;19.83;;;;;-1.20;101189.00;;;;10071656;29;20786;-78
2023/12/02 16:53:19;;;;;;;46.80;20.20;;;;;-1.20;101196.00;;;;10046362;29;20223;-78
2023/12/02 16:58:22;;;;;;;44.07;19.97;;;;;-1.20;101201.00;;;;10072029;29;20239;-79
2023/12/02 17:03:26;;;;;;;44.90;21.10;;;;;-1.20;101194.00;;;;10091193;29;20226;-79
2023/12/02 17:08:27;;;;;;;47.10;22.47;;;;;-1.20;101215.00;;;;10070868;29;20228;-79
2023/12/02 17:13:41;;;;;;;44.70;21.60;;;;;-1.20;101211.00;;;;10050825;29;20231;-79
2023/12/02 17:19:00;;;;;;;47.87;23.17;;;;;-1.30;101204.00;;;;10079963;29;20270;-80
2023/12/02 17:24:07;;;;;;;51.10;22.17;;;;;-1.30;101223.00;;;;10064334;29;20834;-78
2023/12/02 17:29:13;;;;;;;48.50;23.87;;;;;-1.30;101213.00;;;;10079110;29;20227;-78
2023/12/02 17:34:15;;;;;;;59.63;25.27;;;;;-1.30;101216.00;;;;10084804;29;20227;-78
2023/12/02 17:39:16;;;;;;;72.63;28.67;;;;;-1.30;101220.00;;;;10084426;29;20839;-79
2023/12/02 17:44:19;;;;;;;56.10;23.93;;;;;-1.30;101215.00;;;;10083197;29;20357;-79
2023/12/02 17:49:20;;;;;;;48.70;23.27;;;;;-1.30;101219.00;;;;10057402;29;20227;-82
2023/12/02 17:54:22;;;;;;;53.73;23.83;;;;;-1.40;101216.00;;;;10072357;29;20223;-81
2023/12/02 17:59:23;;;;;;;51.80;24.67;;;;;-1.50;101219.00;;;;10061120;29;20243;-80
2023/12/02 18:04:24;;;;;;;53.00;22.93;;;;;-1.40;101229.00;;;;10053521;29;20251;-81
2023/12/02 18:09:25;;;;;;;46.90;22.43;;;;;-1.40;101226.00;;;;10073141;29;20234;-81
2023/12/02 18:14:27;;;;;;;41.97;21.70;;;;;-1.40;101229.00;;;;10070931;29;20227;-81
2023/12/02 18:19:28;;;;;;;52.03;22.23;;;;;-1.50;101229.00;;;;10089313;29;20236;-81
2023/12/02 18:24:30;;;;;;;49.43;22.70;;;;;-1.50;101234.00;;;;10061619;29;20263;-82
2023/12/02 18:29:31;;;;;;;47.80;22.60;;;;;-1.50;101239.00;;;;10075453;29;20247;-82
2023/12/02 18:34:32;;;;;;;48.40;22.90;;;;;-1.30;101246.00;;;;10087631;29;20689;-83
2023/12/02 18:39:34;;;;;;;47.77;22.80;;;;;-1.00;101255.00;;;;10089447;29;20243;-82
2023/12/02 18:44:35;;;;;;;50.23;22.93;;;;;-0.70;101252.00;;;;10078867;29;20231;-81
2023/12/02 18:49:37;;;;;;;47.40;23.47;;;;;-0.40;101250.00;;;;10068734;29;20527;-82
2023/12/02 18:54:38;;;;;;;47.77;22.30;;;;;-0.30;101260.00;;;;10094521;29;20231;-83
2023/12/02 18:59:39;;;;;;;43.90;22.13;;;;;-0.20;101259.00;;;;10055141;29;20227;-79
2023/12/02 19:04:40;;;;;;;40.40;20.33;;;;;-0.20;101267.00;;;;10074723;29;20257;-79
2023/12/02 19:09:42;;;;;;;43.63;21.30;;;;;-0.20;101269.00;;;;10062207;29;20239;-79
2023/12/02 19:14:43;;;;;;;36.80;21.37;;;;;-0.20;101269.00;;;;10064205;29;20223;-80
2023/12/02 19:19:45;;;;;;;38.47;19.50;;;;;-0.20;101267.00;;;;10059540;29;20356;-83
2023/12/02 19:24:46;;;;;;;37.00;19.60;;;;;-0.30;101278.00;;;;10050656;29;20246;-79
2023/12/02 19:29:48;;;;;;;36.97;20.40;;;;;-0.30;101273.00;;;;10067556;29;20231;-79
2023/12/02 19:34:49;;;;;;;41.20;20.40;;;;;-0.30;101286.00;;;;10058579;29;20794;-82
2023/12/02 19:39:50;;;;;;;34.87;20.00;;;;;0.00;101289.00;;;;10091862;29;20860;-81
2023/12/02 19:44:51;;;;;;;40.27;20.00;;;;;0.10;101290.00;;;;10071134;29;20228;-82
2023/12/02 19:49:52;;;;;;;41.73;20.83;;;;;0.30;101293.00;;;;10062527;29;20261;-80
2023/12/02 19:54:53;;;;;;;37.30;20.97;;;;;0.40;101313.00;;;;10065823;29;20758;-78
2023/12/02 19:59:55;;;;;;;37.33;19.90;;;;;0.50;101314.00;;;;10063446;29;20223;-84
2023/12/02 20:04:58;;;;;;;32.63;18.57;;;;;0.60;101328.00;;;;10074843;29;20292;-79
2023/12/02 20:10:00;;;;;;;31.00;18.87;;;;;0.70;101321.00;;;;10086574;29;20230;-84
2023/12/02 20:15:02;;;;;;;37.53;19.47;;;;;0.70;101318.00;;;;10056626;29;20220;-81
2023/12/02 20:20:04;;;;;;;32.53;18.13;;;;;0.80;101316.00;;;;10069081;29;20903;-79
2023/12/02 20:25:05;;;;;;;35.53;17.37;;;;;0.90;101314.00;;;;10074223;29;20223;-80
2023/12/02 20:30:07;;;;;;;31.33;18.80;;;;;0.90;101318.00;;;;10077774;29;21134;-81
2023/12/02 20:35:08;;;;;;;32.40;17.63;;;;;0.90;101323.00;;;;10049663;29;20831;-78
2023/12/02 20:40:10;;;;;;;34.50;18.50;;;;;0.90;101321.00;;;;10061619;29;20234;-81
2023/12/02 20:45:11;;;;;;;33.17;17.57;;;;;0.90;101323.00;;;;10073097;29;20261;-80
2023/12/02 20:50:13;;;;;;;28.33;16.27;;;;;0.80;101317.00;;;;10061008;29;20224;-79
2023/12/02 20:55:14;;;;;;;33.90;18.87;;;;;0.80;101316.00;;;;10086963;29;20377;-80
2023/12/02 21:00:16;;;;;;;36.43;19.30;;;;;0.80;101323.00;;;;10074937;29;20398;-80
2023/12/02 21:05:20;;;;;;;45.13;23.87;;;;;0.70;101320.00;;;;10095780;29;20240;-80
2023/12/02 21:10:21;;;;;;;40.90;21.93;;;;;0.60;101326.00;;;;10055556;29;20228;-79
2023/12/02 21:15:22;;;;;;;47.03;23.27;;;;;0.40;101326.00;;;;10073778;29;20690;-79
2023/12/02 21:20:23;;;;;;;43.17;23.10;;;;;0.40;101332.00;;;;10079389;29;20270;-78
2023/12/02 21:25:27;;;;;;;46.57;22.83;;;;;0.50;101321.00;;;;10091256;29;20242;-80
2023/12/02 21:30:35;;;;;;;47.87;22.90;;;;;0.70;101325.00;;;;10070203;29;20231;-78
2023/12/02 21:35:39;;;;;;;42.67;21.93;;;;;0.80;101322.00;;;;10086998;29;20238;-79
2023/12/02 21:40:41;;;;;;;46.30;23.93;;;;;0.80;101325.00;;;;10072390;29;20308;-84
2023/12/02 21:45:45;;;;;;;42.10;22.97;;;;;0.80;101337.00;;;;10059358;29;20312;-79
2023/12/02 21:50:47;;;;;;;41.67;22.07;;;;;0.80;101334.00;;;;10057148;29;20710;-80
2023/12/02 21:55:48;;;;;;;40.33;21.47;;;;;0.80;101344.00;;;;10070719;29;20322;-80
2023/12/02 22:01:00;;;;;;;37.90;20.40;;;;;0.90;101341.00;;;;10061793;29;20231;-79
2023/12/02 22:06:40;;;;;;;37.60;20.03;;;;;1.00;101356.00;;;;10066129;29;20322;-80
2023/12/02 22:11:41;;;;;;;34.70;19.33;;;;;1.10;101351.00;;;;10025983;29;20227;-80
2023/12/02 22:16:43;;;;;;;34.03;18.00;;;;;1.10;101360.00;;;;10067589;29;20231;-78
2023/12/02 22:21:44;;;;;;;36.97;19.50;;;;;1.20;101365.00;;;;10066969;29;20323;-82
2023/12/02 22:26:45;;;;;;;38.50;20.10;;;;;1.20;101361.00;;;;10076729;29;20243;-89
2023/12/02 22:31:46;;;;;;;35.40;18.60;;;;;1.30;101373.00;;;;10109687;29;20219;-88
2023/12/02 22:36:48;;;;;;;32.57;18.40;;;;;1.30;101371.00;;;;10090925;29;20239;-90
2023/12/02 22:41:51;;;;;;;34.33;19.97;;;;;1.30;101376.00;;;;10102247;29;20223;-89
2023/12/02 22:46:58;;;;;;;30.93;18.03;;;;;1.40;101368.00;;;;10082371;29;20288;-88
2023/12/02 22:51:59;;;;;;;37.60;20.23;;;;;1.40;101386.00;;;;10089392;29;20251;-89
2023/12/02 22:57:03;;;;;;;32.20;18.97;;;;;1.40;101383.00;;;;10091711;29;20231;-87
2023/12/02 23:02:08;;;;;;;33.60;18.83;;;;;1.40;101392.00;;;;10068539;29;20232;-87
2023/12/02 23:07:15;;;;;;;34.60;19.43;;;;;1.40;101397.00;;;;10092247;29;20223;-88
2023/12/02 23:12:34;;;;;;;38.23;19.83;;;;;1.30;101400.00;;;;10091355;29;20291;-88
2023/12/02 23:17:37;;;;;;;33.50;18.97;;;;;1.30;101386.00;;;;10077568;29;20763;-89
2023/12/02 23:22:38;;;;;;;32.03;17.57;;;;;1.30;101392.00;;;;10080560;29;20255;-87
2023/12/02 23:27:39;;;;;;;32.53;18.67;;;;;1.20;101408.00;;;;10089599;29;20936;-88
2023/12/02 23:32:51;;;;;;;35.43;18.03;;;;;0.90;101399.00;;;;10087555;29;20234;-88
2023/12/02 23:37:53;;;;;;;31.13;16.67;;;;;0.70;101395.00;;;;10080842;29;20446;-88
2023/12/02 23:42:59;;;;;;;35.53;18.10;;;;;0.50;101407.00;;;;10081813;29;20228;-89
2023/12/02 23:48:00;;;;;;;30.20;16.90;;;;;0.30;101394.00;;;;10081980;29;20252;-84
2023/12/02 23:53:02;;;;;;;33.37;16.90;;;;;0.10;101394.00;;;;10065352;29;20249;-83
2023/12/02 23:58:03;;;;;;;32.23;18.37;;;;;0.00;101397.00;;;;10058480;29;20242;-83
